sensor_id;sensor_type;location;lat;lon;timestamp;temperature;humidity
29237;DHT22;16266;50.866;4.398;2023-01-13T00:01:59;9.90;99.90
29237;DHT22;16266;50.866;4.398;2023-01-13T00:04:24;9.90;99.90
29237;DHT22;16266;50.866;4.398;2023-01-13T00:06:50;9.90;99.90
29237;DHT22;16266;50.866;4.398;2023-01-13T00:09:16;9.90;99.90
29237;DHT22;16266;50.866;4.398;2023-01-13T00:11:42;9.90;99.90
29237;DHT22;16266;50.866;4.398;2023-01-13T00:14:07;9.90;99.90
29237;DHT22;16266;50.866;4.398;2023-01-13T00:16:33;9.90;99.90
29237;DHT22;16266;50.866;4.398;2023-01-13T00:18:59;9.90;99.90
29237;DHT22;16266;50.866;4.398;2023-01-13T00:21:25;9.70;99.90
29237;DHT22;16266;50.866;4.398;2023-01-13T00:23:52;9.70;99.90
29237;DHT22;16266;50.866;4.398;2023-01-13T00:26:23;9.60;99.90
29237;DHT22;16266;50.866;4.398;2023-01-13T00:28:50;9.60;99.90
29237;DHT22;16266;50.866;4.398;2023-01-13T00:31:18;9.50;99.90
29237;DHT22;16266;50.866;4.398;2023-01-13T00:33:44;9.50;99.90
29237;DHT22;16266;50.866;4.398;2023-01-13T00:36:12;9.50;99.90
29237;DHT22;16266;50.866;4.398;2023-01-13T00:38:38;9.40;99.90
29237;DHT22;16266;50.866;4.398;2023-01-13T00:41:08;9.40;99.90
29237;DHT22;16266;50.866;4.398;2023-01-13T00:43:35;9.30;99.90
29237;DHT22;16266;50.866;4.398;2023-01-13T00:46:02;9.30;99.90
29237;DHT22;16266;50.866;4.398;2023-01-13T00:48:28;9.30;99.90
29237;DHT22;16266;50.866;4.398;2023-01-13T00:51:02;9.20;99.90
29237;DHT22;16266;50.866;4.398;2023-01-13T00:53:29;9.10;99.90
29237;DHT22;16266;50.866;4.398;2023-01-13T00:56:00;9.00;99.90
29237;DHT22;16266;50.866;4.398;2023-01-13T00:58:27;9.00;99.90
29237;DHT22;16266;50.866;4.398;2023-01-13T01:00:52;8.90;99.90
29237;DHT22;16266;50.866;4.398;2023-01-13T01:03:18;8.80;99.90
29237;DHT22;16266;50.866;4.398;2023-01-13T01:05:44;8.70;99.90
29237;DHT22;16266;50.866;4.398;2023-01-13T01:08:09;8.70;99.90
29237;DHT22;16266;50.866;4.398;2023-01-13T01:10:35;8.80;99.90
29237;DHT22;16266;50.866;4.398;2023-01-13T01:13:01;8.70;99.90
29237;DHT22;16266;50.866;4.398;2023-01-13T01:15:26;8.70;99.90
29237;DHT22;16266;50.866;4.398;2023-01-13T01:17:52;8.70;99.90
29237;DHT22;16266;50.866;4.398;2023-01-13T01:20:17;8.60;99.90
29237;DHT22;16266;50.866;4.398;2023-01-13T01:22:43;8.60;99.90
29237;DHT22;16266;50.866;4.398;2023-01-13T01:25:09;8.60;99.90
29237;DHT22;16266;50.866;4.398;2023-01-13T01:27:35;8.50;99.90
29237;DHT22;16266;50.866;4.398;2023-01-13T01:30:00;8.50;99.90
29237;DHT22;16266;50.866;4.398;2023-01-13T01:32:26;8.60;99.90
29237;DHT22;16266;50.866;4.398;2023-01-13T01:34:52;8.60;99.90
29237;DHT22;16266;50.866;4.398;2023-01-13T01:37:17;8.50;99.90
29237;DHT22;16266;50.866;4.398;2023-01-13T01:39:43;8.50;99.90
29237;DHT22;16266;50.866;4.398;2023-01-13T01:42:15;8.50;99.90
29237;DHT22;16266;50.866;4.398;2023-01-13T01:45:20;8.50;99.90
29237;DHT22;16266;50.866;4.398;2023-01-13T01:47:53;8.40;99.90
29237;DHT22;16266;50.866;4.398;2023-01-13T01:50:21;8.40;99.90
29237;DHT22;16266;50.866;4.398;2023-01-13T01:52:50;8.40;99.90
29237;DHT22;16266;50.866;4.398;2023-01-13T01:55:25;8.40;99.90
29237;DHT22;16266;50.866;4.398;2023-01-13T02:00:19;8.30;99.90
29237;DHT22;16266;50.866;4.398;2023-01-13T02:02:46;8.30;99.90
29237;DHT22;16266;50.866;4.398;2023-01-13T02:05:12;8.30;99.90
29237;DHT22;16266;50.866;4.398;2023-01-13T02:07:39;8.20;99.90
29237;DHT22;16266;50.866;4.398;2023-01-13T02:10:08;8.30;99.90
29237;DHT22;16266;50.866;4.398;2023-01-13T02:12:35;8.20;99.90
29237;DHT22;16266;50.866;4.398;2023-01-13T02:15:08;8.20;99.90
29237;DHT22;16266;50.866;4.398;2023-01-13T02:29:26;8.10;99.90
29237;DHT22;16266;50.866;4.398;2023-01-13T02:35:12;8.30;99.90
29237;DHT22;16266;50.866;4.398;2023-01-13T02:37:41;8.40;99.90
29237;DHT22;16266;50.866;4.398;2023-01-13T02:40:17;8.40;99.90
29237;DHT22;16266;50.866;4.398;2023-01-13T02:43:24;8.50;99.90
29237;DHT22;16266;50.866;4.398;2023-01-13T02:46:26;8.60;99.90
29237;DHT22;16266;50.866;4.398;2023-01-13T02:48:54;8.70;99.90
29237;DHT22;16266;50.866;4.398;2023-01-13T02:51:23;8.80;99.90
29237;DHT22;16266;50.866;4.398;2023-01-13T02:54:12;8.80;99.90
29237;DHT22;16266;50.866;4.398;2023-01-13T02:56:43;8.90;99.90
29237;DHT22;16266;50.866;4.398;2023-01-13T02:59:12;9.00;99.90
29237;DHT22;16266;50.866;4.398;2023-01-13T03:01:39;9.00;99.90
29237;DHT22;16266;50.866;4.398;2023-01-13T03:04:53;9.10;99.90
29237;DHT22;16266;50.866;4.398;2023-01-13T03:07:43;9.20;99.90
29237;DHT22;16266;50.866;4.398;2023-01-13T03:10:19;9.20;99.90
29237;DHT22;16266;50.866;4.398;2023-01-13T03:13:20;9.20;99.90
29237;DHT22;16266;50.866;4.398;2023-01-13T03:16:04;9.30;99.90
29237;DHT22;16266;50.866;4.398;2023-01-13T03:21:31;9.30;99.90
29237;DHT22;16266;50.866;4.398;2023-01-13T03:27:03;9.30;99.90
29237;DHT22;16266;50.866;4.398;2023-01-13T03:29:37;9.20;99.90
29237;DHT22;16266;50.866;4.398;2023-01-13T03:32:19;9.20;99.90
29237;DHT22;16266;50.866;4.398;2023-01-13T03:34:53;9.10;99.90
29237;DHT22;16266;50.866;4.398;2023-01-13T03:37:22;9.10;99.90
29237;DHT22;16266;50.866;4.398;2023-01-13T03:39:59;9.10;99.90
29237;DHT22;16266;50.866;4.398;2023-01-13T03:42:29;9.10;99.90
29237;DHT22;16266;50.866;4.398;2023-01-13T03:45:04;9.10;99.90
29237;DHT22;16266;50.866;4.398;2023-01-13T03:47:37;9.10;99.90
29237;DHT22;16266;50.866;4.398;2023-01-13T03:50:10;9.00;99.90
29237;DHT22;16266;50.866;4.398;2023-01-13T03:52:43;8.80;99.90
29237;DHT22;16266;50.866;4.398;2023-01-13T03:55:20;8.70;99.90
29237;DHT22;16266;50.866;4.398;2023-01-13T03:58:00;8.80;99.90
29237;DHT22;16266;50.866;4.398;2023-01-13T04:00:33;8.70;99.90
29237;DHT22;16266;50.866;4.398;2023-01-13T04:03:10;8.60;99.90
29237;DHT22;16266;50.866;4.398;2023-01-13T04:05:41;8.60;99.90
29237;DHT22;16266;50.866;4.398;2023-01-13T04:08:20;8.50;99.90
29237;DHT22;16266;50.866;4.398;2023-01-13T04:11:11;8.60;99.90
29237;DHT22;16266;50.866;4.398;2023-01-13T04:13:40;8.60;99.90
29237;DHT22;16266;50.866;4.398;2023-01-13T04:16:09;8.60;99.90
29237;DHT22;16266;50.866;4.398;2023-01-13T04:18:37;8.70;99.90
29237;DHT22;16266;50.866;4.398;2023-01-13T04:21:04;8.60;99.90
29237;DHT22;16266;50.866;4.398;2023-01-13T04:23:30;8.60;99.90
29237;DHT22;16266;50.866;4.398;2023-01-13T04:25:57;8.60;99.90
29237;DHT22;16266;50.866;4.398;2023-01-13T04:28:23;8.70;99.90
29237;DHT22;16266;50.866;4.398;2023-01-13T04:30:49;8.70;99.90
29237;DHT22;16266;50.866;4.398;2023-01-13T04:33:16;8.70;99.90
29237;DHT22;16266;50.866;4.398;2023-01-13T04:35:43;8.80;99.90
29237;DHT22;16266;50.866;4.398;2023-01-13T04:38:12;8.90;99.90
29237;DHT22;16266;50.866;4.398;2023-01-13T04:40:38;9.00;99.90
29237;DHT22;16266;50.866;4.398;2023-01-13T04:43:04;9.10;99.90
29237;DHT22;16266;50.866;4.398;2023-01-13T04:45:30;9.00;99.90
29237;DHT22;16266;50.866;4.398;2023-01-13T04:47:56;9.10;99.90
29237;DHT22;16266;50.866;4.398;2023-01-13T04:50:22;9.10;99.90
29237;DHT22;16266;50.866;4.398;2023-01-13T04:52:51;9.10;99.90
29237;DHT22;16266;50.866;4.398;2023-01-13T04:55:18;9.20;99.90
29237;DHT22;16266;50.866;4.398;2023-01-13T04:57:44;9.10;99.90
29237;DHT22;16266;50.866;4.398;2023-01-13T05:00:12;9.00;99.90
29237;DHT22;16266;50.866;4.398;2023-01-13T05:02:39;8.80;99.90
29237;DHT22;16266;50.866;4.398;2023-01-13T05:05:04;8.60;99.90
29237;DHT22;16266;50.866;4.398;2023-01-13T05:07:30;8.60;99.90
29237;DHT22;16266;50.866;4.398;2023-01-13T05:09:56;8.50;99.90
29237;DHT22;16266;50.866;4.398;2023-01-13T05:12:22;8.40;99.90
29237;DHT22;16266;50.866;4.398;2023-01-13T05:15:06;8.30;99.90
29237;DHT22;16266;50.866;4.398;2023-01-13T05:17:51;8.20;99.90
29237;DHT22;16266;50.866;4.398;2023-01-13T05:20:16;8.20;99.90
29237;DHT22;16266;50.866;4.398;2023-01-13T05:22:43;8.10;99.90
29237;DHT22;16266;50.866;4.398;2023-01-13T05:25:27;8.00;99.90
29237;DHT22;16266;50.866;4.398;2023-01-13T05:27:55;8.00;99.90
29237;DHT22;16266;50.866;4.398;2023-01-13T05:30:29;8.00;99.90
29237;DHT22;16266;50.866;4.398;2023-01-13T05:32:55;7.90;99.90
29237;DHT22;16266;50.866;4.398;2023-01-13T05:35:21;7.80;99.90
29237;DHT22;16266;50.866;4.398;2023-01-13T05:37:47;7.80;99.90
29237;DHT22;16266;50.866;4.398;2023-01-13T05:40:16;7.80;99.90
29237;DHT22;16266;50.866;4.398;2023-01-13T05:43:20;7.80;99.90
29237;DHT22;16266;50.866;4.398;2023-01-13T05:46:04;7.70;99.90
29237;DHT22;16266;50.866;4.398;2023-01-13T05:48:38;7.70;99.90
29237;DHT22;16266;50.866;4.398;2023-01-13T05:51:06;7.80;99.90
29237;DHT22;16266;50.866;4.398;2023-01-13T05:53:32;7.70;99.90
29237;DHT22;16266;50.866;4.398;2023-01-13T05:55:58;7.80;99.90
29237;DHT22;16266;50.866;4.398;2023-01-13T05:58:26;7.70;99.90
29237;DHT22;16266;50.866;4.398;2023-01-13T06:00:52;7.70;99.90
29237;DHT22;16266;50.866;4.398;2023-01-13T06:03:19;7.70;99.90
29237;DHT22;16266;50.866;4.398;2023-01-13T06:05:45;7.70;99.90
29237;DHT22;16266;50.866;4.398;2023-01-13T06:08:11;7.70;99.90
29237;DHT22;16266;50.866;4.398;2023-01-13T06:10:37;7.70;99.90
29237;DHT22;16266;50.866;4.398;2023-01-13T06:13:03;7.70;99.90
29237;DHT22;16266;50.866;4.398;2023-01-13T06:15:29;7.70;99.90
29237;DHT22;16266;50.866;4.398;2023-01-13T06:17:55;7.70;99.90
29237;DHT22;16266;50.866;4.398;2023-01-13T06:20:22;7.60;99.90
29237;DHT22;16266;50.866;4.398;2023-01-13T06:22:49;7.60;99.90
29237;DHT22;16266;50.866;4.398;2023-01-13T06:25:28;7.70;99.90
29237;DHT22;16266;50.866;4.398;2023-01-13T06:27:56;7.70;99.90
29237;DHT22;16266;50.866;4.398;2023-01-13T06:30:24;7.60;99.90
29237;DHT22;16266;50.866;4.398;2023-01-13T06:32:55;7.70;99.90
29237;DHT22;16266;50.866;4.398;2023-01-13T06:35:27;7.60;99.90
29237;DHT22;16266;50.866;4.398;2023-01-13T06:37:55;7.60;99.90
29237;DHT22;16266;50.866;4.398;2023-01-13T06:40:23;7.60;99.90
29237;DHT22;16266;50.866;4.398;2023-01-13T06:42:49;7.60;99.90
29237;DHT22;16266;50.866;4.398;2023-01-13T06:45:35;7.60;99.90
29237;DHT22;16266;50.866;4.398;2023-01-13T06:48:01;7.70;99.90
29237;DHT22;16266;50.866;4.398;2023-01-13T06:50:26;7.70;99.90
29237;DHT22;16266;50.866;4.398;2023-01-13T06:52:52;7.70;99.90
29237;DHT22;16266;50.866;4.398;2023-01-13T06:55:18;7.60;99.90
29237;DHT22;16266;50.866;4.398;2023-01-13T06:57:48;7.70;99.90
29237;DHT22;16266;50.866;4.398;2023-01-13T07:00:14;7.70;99.90
29237;DHT22;16266;50.866;4.398;2023-01-13T07:02:40;7.70;99.90
29237;DHT22;16266;50.866;4.398;2023-01-13T07:05:06;7.70;99.90
29237;DHT22;16266;50.866;4.398;2023-01-13T07:07:32;7.70;99.90
29237;DHT22;16266;50.866;4.398;2023-01-13T07:09:58;7.70;99.90
29237;DHT22;16266;50.866;4.398;2023-01-13T07:12:24;7.70;99.90
29237;DHT22;16266;50.866;4.398;2023-01-13T07:14:49;7.70;99.90
29237;DHT22;16266;50.866;4.398;2023-01-13T07:17:33;7.80;99.90
29237;DHT22;16266;50.866;4.398;2023-01-13T07:19:59;7.70;99.90
29237;DHT22;16266;50.866;4.398;2023-01-13T07:22:25;7.70;99.90
29237;DHT22;16266;50.866;4.398;2023-01-13T07:24:50;7.70;99.90
29237;DHT22;16266;50.866;4.398;2023-01-13T07:27:16;7.80;99.90
29237;DHT22;16266;50.866;4.398;2023-01-13T07:29:41;7.80;99.90
29237;DHT22;16266;50.866;4.398;2023-01-13T07:32:08;7.70;99.90
29237;DHT22;16266;50.866;4.398;2023-01-13T07:34:34;7.70;99.90
29237;DHT22;16266;50.866;4.398;2023-01-13T07:37:00;7.80;99.90
29237;DHT22;16266;50.866;4.398;2023-01-13T07:39:26;7.70;99.90
29237;DHT22;16266;50.866;4.398;2023-01-13T07:41:52;7.70;99.90
29237;DHT22;16266;50.866;4.398;2023-01-13T07:44:36;7.70;99.90
29237;DHT22;16266;50.866;4.398;2023-01-13T07:47:02;7.70;99.90
29237;DHT22;16266;50.866;4.398;2023-01-13T07:49:27;7.70;99.90
29237;DHT22;16266;50.866;4.398;2023-01-13T07:51:53;7.70;99.90
29237;DHT22;16266;50.866;4.398;2023-01-13T07:54:19;7.70;99.90
29237;DHT22;16266;50.866;4.398;2023-01-13T07:56:44;7.70;99.90
29237;DHT22;16266;50.866;4.398;2023-01-13T07:59:10;7.80;99.90
29237;DHT22;16266;50.866;4.398;2023-01-13T08:01:36;7.80;99.90
29237;DHT22;16266;50.866;4.398;2023-01-13T08:04:01;7.80;99.90
29237;DHT22;16266;50.866;4.398;2023-01-13T08:06:27;7.80;99.90
29237;DHT22;16266;50.866;4.398;2023-01-13T08:08:53;7.80;99.90
29237;DHT22;16266;50.866;4.398;2023-01-13T08:11:19;7.80;99.90
29237;DHT22;16266;50.866;4.398;2023-01-13T08:13:44;7.90;99.90
29237;DHT22;16266;50.866;4.398;2023-01-13T08:16:12;8.00;99.90
29237;DHT22;16266;50.866;4.398;2023-01-13T08:18:39;8.10;99.90
29237;DHT22;16266;50.866;4.398;2023-01-13T08:21:10;8.30;99.90
29237;DHT22;16266;50.866;4.398;2023-01-13T08:23:37;8.40;99.90
29237;DHT22;16266;50.866;4.398;2023-01-13T08:26:08;8.50;99.90
29237;DHT22;16266;50.866;4.398;2023-01-13T08:28:35;8.50;99.90
29237;DHT22;16266;50.866;4.398;2023-01-13T08:31:02;8.50;99.90
29237;DHT22;16266;50.866;4.398;2023-01-13T08:33:29;8.50;99.90
29237;DHT22;16266;50.866;4.398;2023-01-13T08:35:54;8.60;99.90
29237;DHT22;16266;50.866;4.398;2023-01-13T08:38:21;8.70;99.90
29237;DHT22;16266;50.866;4.398;2023-01-13T08:40:47;8.80;99.90
29237;DHT22;16266;50.866;4.398;2023-01-13T08:43:12;9.20;99.90
29237;DHT22;16266;50.866;4.398;2023-01-13T08:45:38;9.60;99.90
29237;DHT22;16266;50.866;4.398;2023-01-13T08:48:04;9.80;99.90
29237;DHT22;16266;50.866;4.398;2023-01-13T08:50:30;9.80;99.90
29237;DHT22;16266;50.866;4.398;2023-01-13T08:52:56;9.60;99.90
29237;DHT22;16266;50.866;4.398;2023-01-13T08:55:21;9.60;99.90
29237;DHT22;16266;50.866;4.398;2023-01-13T08:57:47;9.50;99.90
29237;DHT22;16266;50.866;4.398;2023-01-13T09:00:13;9.40;99.90
29237;DHT22;16266;50.866;4.398;2023-01-13T09:02:41;9.50;99.90
29237;DHT22;16266;50.866;4.398;2023-01-13T09:05:08;9.70;99.90
29237;DHT22;16266;50.866;4.398;2023-01-13T09:07:36;9.80;99.90
29237;DHT22;16266;50.866;4.398;2023-01-13T09:10:04;9.90;99.90
29237;DHT22;16266;50.866;4.398;2023-01-13T09:12:30;9.90;99.90
29237;DHT22;16266;50.866;4.398;2023-01-13T09:15:14;10.10;99.90
29237;DHT22;16266;50.866;4.398;2023-01-13T09:17:43;10.30;99.90
29237;DHT22;16266;50.866;4.398;2023-01-13T09:20:09;10.50;99.90
29237;DHT22;16266;50.866;4.398;2023-01-13T09:22:35;10.90;99.90
29237;DHT22;16266;50.866;4.398;2023-01-13T09:25:02;11.10;99.90
29237;DHT22;16266;50.866;4.398;2023-01-13T09:27:28;11.10;99.90
29237;DHT22;16266;50.866;4.398;2023-01-13T09:29:54;11.00;99.90
29237;DHT22;16266;50.866;4.398;2023-01-13T09:32:19;10.60;99.90
29237;DHT22;16266;50.866;4.398;2023-01-13T09:34:45;10.30;99.90
29237;DHT22;16266;50.866;4.398;2023-01-13T09:37:34;10.60;99.90
29237;DHT22;16266;50.866;4.398;2023-01-13T09:40:01;10.80;99.90
29237;DHT22;16266;50.866;4.398;2023-01-13T09:42:51;10.80;99.90
29237;DHT22;16266;50.866;4.398;2023-01-13T09:45:50;10.70;99.90
29237;DHT22;16266;50.866;4.398;2023-01-13T09:48:23;10.80;99.90
29237;DHT22;16266;50.866;4.398;2023-01-13T09:53:37;10.90;99.90
29237;DHT22;16266;50.866;4.398;2023-01-13T09:56:04;11.00;99.90
29237;DHT22;16266;50.866;4.398;2023-01-13T09:58:32;11.00;99.90
29237;DHT22;16266;50.866;4.398;2023-01-13T10:01:30;10.90;99.90
29237;DHT22;16266;50.866;4.398;2023-01-13T10:04:11;10.80;99.90
29237;DHT22;16266;50.866;4.398;2023-01-13T10:06:42;10.60;99.90
29237;DHT22;16266;50.866;4.398;2023-01-13T10:09:23;10.60;99.90
29237;DHT22;16266;50.866;4.398;2023-01-13T10:11:51;10.50;99.90
29237;DHT22;16266;50.866;4.398;2023-01-13T10:14:41;10.40;99.90
29237;DHT22;16266;50.866;4.398;2023-01-13T10:20:14;10.50;99.90
29237;DHT22;16266;50.866;4.398;2023-01-13T10:22:50;10.60;99.90
29237;DHT22;16266;50.866;4.398;2023-01-13T10:25:30;10.50;99.90
29237;DHT22;16266;50.866;4.398;2023-01-13T10:28:07;10.60;99.90
29237;DHT22;16266;50.866;4.398;2023-01-13T10:30:41;10.80;99.90
29237;DHT22;16266;50.866;4.398;2023-01-13T10:33:22;10.80;99.90
29237;DHT22;16266;50.866;4.398;2023-01-13T10:36:00;10.90;99.90
29237;DHT22;16266;50.866;4.398;2023-01-13T10:41:16;11.00;99.90
29237;DHT22;16266;50.866;4.398;2023-01-13T10:43:58;10.80;99.90
29237;DHT22;16266;50.866;4.398;2023-01-13T10:46:25;10.50;99.90
29237;DHT22;16266;50.866;4.398;2023-01-13T10:49:24;10.40;99.90
29237;DHT22;16266;50.866;4.398;2023-01-13T10:51:50;10.00;99.90
29237;DHT22;16266;50.866;4.398;2023-01-13T10:54:20;9.70;99.90
29237;DHT22;16266;50.866;4.398;2023-01-13T10:56:47;9.70;99.90
29237;DHT22;16266;50.866;4.398;2023-01-13T10:59:22;9.60;99.90
29237;DHT22;16266;50.866;4.398;2023-01-13T11:02:12;9.60;99.90
29237;DHT22;16266;50.866;4.398;2023-01-13T11:07:34;9.70;99.90
29237;DHT22;16266;50.866;4.398;2023-01-13T11:13:15;9.70;99.90
29237;DHT22;16266;50.866;4.398;2023-01-13T11:18:15;9.60;99.90
29237;DHT22;16266;50.866;4.398;2023-01-13T11:20:45;9.70;99.90
29237;DHT22;16266;50.866;4.398;2023-01-13T11:23:20;9.80;99.90
29237;DHT22;16266;50.866;4.398;2023-01-13T11:25:53;9.80;99.90
29237;DHT22;16266;50.866;4.398;2023-01-13T11:28:29;9.90;99.90
29237;DHT22;16266;50.866;4.398;2023-01-13T11:31:17;9.90;99.90
29237;DHT22;16266;50.866;4.398;2023-01-13T11:33:56;9.90;99.90
29237;DHT22;16266;50.866;4.398;2023-01-13T11:36:42;10.00;99.90
29237;DHT22;16266;50.866;4.398;2023-01-13T11:39:23;10.00;99.90
29237;DHT22;16266;50.866;4.398;2023-01-13T11:42:03;10.00;99.90
29237;DHT22;16266;50.866;4.398;2023-01-13T11:47:33;9.90;99.90
29237;DHT22;16266;50.866;4.398;2023-01-13T11:50:00;9.90;99.90
29237;DHT22;16266;50.866;4.398;2023-01-13T11:52:53;10.00;99.90
29237;DHT22;16266;50.866;4.398;2023-01-13T11:55:32;10.00;99.90
29237;DHT22;16266;50.866;4.398;2023-01-13T12:06:40;10.00;99.90
29237;DHT22;16266;50.866;4.398;2023-01-13T12:09:30;9.90;99.90
29237;DHT22;16266;50.866;4.398;2023-01-13T12:26:10;10.00;99.90
29237;DHT22;16266;50.866;4.398;2023-01-13T12:28:50;10.10;99.90
29237;DHT22;16266;50.866;4.398;2023-01-13T12:31:17;10.00;99.90
29237;DHT22;16266;50.866;4.398;2023-01-13T12:41:39;9.90;99.90
29237;DHT22;16266;50.866;4.398;2023-01-13T12:44:27;9.90;99.90
29237;DHT22;16266;50.866;4.398;2023-01-13T12:46:54;9.80;99.90
29237;DHT22;16266;50.866;4.398;2023-01-13T12:49:27;9.80;99.90
29237;DHT22;16266;50.866;4.398;2023-01-13T12:57:25;9.70;99.90
29237;DHT22;16266;50.866;4.398;2023-01-13T13:02:35;9.70;99.90
29237;DHT22;16266;50.866;4.398;2023-01-13T13:07:46;9.60;99.90
29237;DHT22;16266;50.866;4.398;2023-01-13T13:10:28;9.60;99.90
29237;DHT22;16266;50.866;4.398;2023-01-13T13:13:00;9.60;99.90
29237;DHT22;16266;50.866;4.398;2023-01-13T13:15:46;9.70;99.90
29237;DHT22;16266;50.866;4.398;2023-01-13T13:21:06;9.80;99.90
29237;DHT22;16266;50.866;4.398;2023-01-13T13:28:39;9.80;99.90
29237;DHT22;16266;50.866;4.398;2023-01-13T13:34:11;9.80;99.90
29237;DHT22;16266;50.866;4.398;2023-01-13T13:39:42;9.80;99.90
29237;DHT22;16266;50.866;4.398;2023-01-13T13:42:42;9.80;99.90
29237;DHT22;16266;50.866;4.398;2023-01-13T13:45:28;9.80;99.90
29237;DHT22;16266;50.866;4.398;2023-01-13T13:48:26;9.80;99.90
29237;DHT22;16266;50.866;4.398;2023-01-13T13:50:54;9.90;99.90
29237;DHT22;16266;50.866;4.398;2023-01-13T13:53:35;9.90;99.90
29237;DHT22;16266;50.866;4.398;2023-01-13T13:56:13;10.00;99.90
29237;DHT22;16266;50.866;4.398;2023-01-13T13:58:39;10.00;99.90
29237;DHT22;16266;50.866;4.398;2023-01-13T14:01:05;10.10;99.90
29237;DHT22;16266;50.866;4.398;2023-01-13T14:03:35;10.10;99.90
29237;DHT22;16266;50.866;4.398;2023-01-13T14:06:06;10.20;99.90
29237;DHT22;16266;50.866;4.398;2023-01-13T14:08:39;10.30;99.90
29237;DHT22;16266;50.866;4.398;2023-01-13T14:11:30;10.40;99.90
29237;DHT22;16266;50.866;4.398;2023-01-13T14:14:05;10.50;99.90
29237;DHT22;16266;50.866;4.398;2023-01-13T14:16:32;10.60;99.90
29237;DHT22;16266;50.866;4.398;2023-01-13T14:18:59;10.60;99.90
29237;DHT22;16266;50.866;4.398;2023-01-13T14:21:26;10.70;99.90
29237;DHT22;16266;50.866;4.398;2023-01-13T14:24:12;10.80;99.90
29237;DHT22;16266;50.866;4.398;2023-01-13T14:26:38;10.80;99.90
29237;DHT22;16266;50.866;4.398;2023-01-13T14:29:04;10.80;99.90
29237;DHT22;16266;50.866;4.398;2023-01-13T14:31:31;10.80;99.90
29237;DHT22;16266;50.866;4.398;2023-01-13T14:33:59;10.80;99.90
29237;DHT22;16266;50.866;4.398;2023-01-13T14:44:28;10.60;99.90
29237;DHT22;16266;50.866;4.398;2023-01-13T14:46:59;10.60;99.90
29237;DHT22;16266;50.866;4.398;2023-01-13T14:49:37;10.50;99.90
29237;DHT22;16266;50.866;4.398;2023-01-13T14:52:15;10.50;99.90
29237;DHT22;16266;50.866;4.398;2023-01-13T14:57:28;10.50;99.90
29237;DHT22;16266;50.866;4.398;2023-01-13T15:02:42;10.60;99.90
29237;DHT22;16266;50.866;4.398;2023-01-13T15:08:06;10.60;99.90
29237;DHT22;16266;50.866;4.398;2023-01-13T15:10:36;10.60;99.90
29237;DHT22;16266;50.866;4.398;2023-01-13T15:13:05;10.80;99.90
29237;DHT22;16266;50.866;4.398;2023-01-13T15:15:37;10.70;99.90
29237;DHT22;16266;50.866;4.398;2023-01-13T15:18:12;10.60;99.90
29237;DHT22;16266;50.866;4.398;2023-01-13T15:20:39;10.70;99.90
29237;DHT22;16266;50.866;4.398;2023-01-13T15:23:05;10.60;99.90
29237;DHT22;16266;50.866;4.398;2023-01-13T15:25:32;10.60;99.90
29237;DHT22;16266;50.866;4.398;2023-01-13T15:27:58;10.60;99.90
29237;DHT22;16266;50.866;4.398;2023-01-13T15:30:25;10.50;99.90
29237;DHT22;16266;50.866;4.398;2023-01-13T15:32:55;10.40;99.90
29237;DHT22;16266;50.866;4.398;2023-01-13T15:35:23;10.40;99.90
29237;DHT22;16266;50.866;4.398;2023-01-13T15:37:50;10.30;99.90
29237;DHT22;16266;50.866;4.398;2023-01-13T15:40:21;10.30;99.90
29237;DHT22;16266;50.866;4.398;2023-01-13T15:42:47;10.30;99.90
29237;DHT22;16266;50.866;4.398;2023-01-13T15:45:33;10.20;99.90
29237;DHT22;16266;50.866;4.398;2023-01-13T15:48:23;10.10;99.90
29237;DHT22;16266;50.866;4.398;2023-01-13T15:50:49;9.90;99.90
29237;DHT22;16266;50.866;4.398;2023-01-13T15:53:15;9.70;99.90
29237;DHT22;16266;50.866;4.398;2023-01-13T15:55:44;9.60;99.90
29237;DHT22;16266;50.866;4.398;2023-01-13T15:58:11;9.50;99.90
29237;DHT22;16266;50.866;4.398;2023-01-13T16:00:38;9.40;99.90
29237;DHT22;16266;50.866;4.398;2023-01-13T16:03:03;9.40;99.90
29237;DHT22;16266;50.866;4.398;2023-01-13T16:05:29;9.30;99.90
29237;DHT22;16266;50.866;4.398;2023-01-13T16:07:55;9.30;99.90
29237;DHT22;16266;50.866;4.398;2023-01-13T16:10:23;9.20;99.90
29237;DHT22;16266;50.866;4.398;2023-01-13T16:12:50;9.20;99.90
29237;DHT22;16266;50.866;4.398;2023-01-13T16:15:17;9.20;99.90
29237;DHT22;16266;50.866;4.398;2023-01-13T16:17:44;9.10;99.90
29237;DHT22;16266;50.866;4.398;2023-01-13T16:20:17;9.00;99.90
29237;DHT22;16266;50.866;4.398;2023-01-13T16:22:43;9.00;99.90
29237;DHT22;16266;50.866;4.398;2023-01-13T16:25:21;8.90;99.90
29237;DHT22;16266;50.866;4.398;2023-01-13T16:27:47;8.90;99.90
29237;DHT22;16266;50.866;4.398;2023-01-13T16:30:27;8.80;99.90
29237;DHT22;16266;50.866;4.398;2023-01-13T16:32:53;8.80;99.90
29237;DHT22;16266;50.866;4.398;2023-01-13T16:35:19;8.80;99.90
29237;DHT22;16266;50.866;4.398;2023-01-13T16:37:46;8.70;99.90
29237;DHT22;16266;50.866;4.398;2023-01-13T16:40:23;8.70;99.90
29237;DHT22;16266;50.866;4.398;2023-01-13T16:42:49;8.70;99.90
29237;DHT22;16266;50.866;4.398;2023-01-13T16:45:15;8.70;99.90
29237;DHT22;16266;50.866;4.398;2023-01-13T16:47:41;8.70;99.90
29237;DHT22;16266;50.866;4.398;2023-01-13T16:50:24;8.80;99.90
29237;DHT22;16266;50.866;4.398;2023-01-13T16:52:53;8.80;99.90
29237;DHT22;16266;50.866;4.398;2023-01-13T16:55:18;8.70;99.90
29237;DHT22;16266;50.866;4.398;2023-01-13T16:57:44;8.60;99.90
29237;DHT22;16266;50.866;4.398;2023-01-13T17:00:11;8.60;99.90
29237;DHT22;16266;50.866;4.398;2023-01-13T17:02:37;8.60;99.90
29237;DHT22;16266;50.866;4.398;2023-01-13T17:05:04;8.50;99.90
29237;DHT22;16266;50.866;4.398;2023-01-13T17:07:30;8.50;99.90
29237;DHT22;16266;50.866;4.398;2023-01-13T17:09:55;8.50;99.90
29237;DHT22;16266;50.866;4.398;2023-01-13T17:12:21;8.40;99.90
29237;DHT22;16266;50.866;4.398;2023-01-13T17:14:46;8.40;99.90
29237;DHT22;16266;50.866;4.398;2023-01-13T17:17:24;8.40;99.90
29237;DHT22;16266;50.866;4.398;2023-01-13T17:19:51;8.40;99.90
29237;DHT22;16266;50.866;4.398;2023-01-13T17:22:18;8.40;99.90
29237;DHT22;16266;50.866;4.398;2023-01-13T17:24:43;8.40;99.90
29237;DHT22;16266;50.866;4.398;2023-01-13T17:27:10;8.40;99.90
29237;DHT22;16266;50.866;4.398;2023-01-13T17:29:35;8.40;99.90
29237;DHT22;16266;50.866;4.398;2023-01-13T17:32:01;8.50;99.90
29237;DHT22;16266;50.866;4.398;2023-01-13T17:34:27;8.70;99.90
29237;DHT22;16266;50.866;4.398;2023-01-13T17:36:52;8.80;99.90
29237;DHT22;16266;50.866;4.398;2023-01-13T17:39:22;8.90;99.90
29237;DHT22;16266;50.866;4.398;2023-01-13T17:41:49;9.00;99.90
29237;DHT22;16266;50.866;4.398;2023-01-13T17:44:19;9.00;99.90
29237;DHT22;16266;50.866;4.398;2023-01-13T17:46:45;9.10;99.90
29237;DHT22;16266;50.866;4.398;2023-01-13T17:49:12;9.10;99.90
29237;DHT22;16266;50.866;4.398;2023-01-13T17:51:38;9.20;99.90
29237;DHT22;16266;50.866;4.398;2023-01-13T17:54:03;9.20;99.90
29237;DHT22;16266;50.866;4.398;2023-01-13T17:56:29;9.30;99.90
29237;DHT22;16266;50.866;4.398;2023-01-13T17:58:55;9.30;99.90
29237;DHT22;16266;50.866;4.398;2023-01-13T18:01:21;9.30;99.90